SLSB/SRJ METAR and TAF weather

Enter ICAO airport designator
Station Type Date Time Source
SLSB METAR 2020/09/01 14:00 UTC NOAA

SLSB 011400Z 14012KT 6000 NSC 24/20 Q1017


Station Type Date Time Source
SLSB Decoded METAR 2020/09/01 14:00 UTC NOAA

San Borja, Bolivia (SLSB) 14-52S 066-52W
Sep 01, 2020 - 10:00 AM EDT / 2020.09.01 1400 UTC
Wind: from the SE (140 degrees) at 14 MPH (12 KT):0
Visibility: 3 mile(s):0
Temperature: 75 F (24 C)
Dew Point: 68 F (20 C)
Relative Humidity: 78%
Pressure (altimeter): 30.03 in. Hg (1017 hPa)
ob: SLSB 011400Z 14012KT 6000 NSC 24/20 Q1017
cycle: 14

Station Type Date Time Source
SLSB TAF UTC NOAA

Error!

Example: see airport list